Time;durP1;ratioP1;P1;durP2;ratioP2;P2;SDS_P1;SDS_P2;PMS_P1;PMS_P2;Temp;Humidity;BMP_temperature;BMP_pressure;BME280_temperature;BME280_humidity;BME280_pressure;Samples;Min_cycle;Max_cycle;Signal;HPM_P1;HPM_P2
2022/06/09 00:00:23;;;;;;;20.70;9.08;;;;;;;14.71;86.09;93982.70;1735642;82;20943;-54
2022/06/09 00:02:55;;;;;;;17.75;10.35;;;;;;;14.71;86.04;93978.55;1735484;82;20932;-54
2022/06/09 00:05:25;;;;;;;16.93;10.32;;;;;;;14.73;85.98;93982.19;1735597;82;21010;-53
2022/06/09 00:07:52;;;;;;;17.10;9.75;;;;;;;14.71;85.87;93978.55;1705011;82;20952;-53
2022/06/09 00:10:28;;;;;;;18.07;9.88;;;;;;;14.71;86.03;93979.92;1735426;82;20967;-54
2022/06/09 00:12:58;;;;;;;12.50;7.62;;;;;;;14.71;85.81;93978.55;1735448;81;21039;-53
2022/06/09 00:15:28;;;;;;;11.55;7.78;;;;;;;14.73;85.54;93974.66;1705176;82;20950;-53
2022/06/09 00:17:58;;;;;;;12.75;8.05;;;;;;;14.75;85.06;93976.30;1735563;82;21039;-54
2022/06/09 00:20:27;;;;;;;11.55;8.60;;;;;;;14.76;84.88;93971.51;1735507;81;21496;-54
2022/06/09 00:22:54;;;;;;;17.40;9.25;;;;;;;14.72;84.79;93980.06;1735478;82;21005;-53
2022/06/09 00:25:22;;;;;;;17.40;9.65;;;;;;;14.66;84.63;93974.34;1704783;82;20960;-54
2022/06/09 00:27:51;;;;;;;16.30;8.90;;;;;;;14.57;85.25;93968.35;1735490;82;21974;-54
2022/06/09 00:30:20;;;;;;;17.67;10.60;;;;;;;14.53;85.99;93974.74;1735401;82;20936;-54
2022/06/09 00:32:50;;;;;;;16.55;9.68;;;;;;;14.46;86.28;93969.64;1735471;82;20936;-53
2022/06/09 00:35:18;;;;;;;13.95;9.50;;;;;;;14.43;86.73;93967.85;1735480;82;20976;-53
2022/06/09 00:37:48;;;;;;;16.67;8.58;;;;;;;14.43;86.96;93969.10;1735423;82;20988;-55
2022/06/09 00:40:16;;;;;;;13.43;8.60;;;;;;;14.46;86.87;93970.28;1735464;82;21793;-54
2022/06/09 00:42:45;;;;;;;13.48;9.05;;;;;;;14.46;86.72;93978.58;1735701;81;21606;-54
2022/06/09 00:45:38;;;;;;;16.45;9.43;;;;;;;14.43;86.94;93969.88;1735582;82;20948;-54
2022/06/09 00:48:14;;;;;;;17.25;9.78;;;;;;;14.40;86.85;93971.47;1735744;82;21023;-53
2022/06/09 00:50:42;;;;;;;14.87;8.65;;;;;;;14.33;87.17;93974.69;1735909;81;21046;-53
2022/06/09 00:53:16;;;;;;;15.18;7.92;;;;;;;14.30;86.89;93968.73;1735529;81;21188;-53
2022/06/09 00:55:45;;;;;;;14.10;8.70;;;;;;;14.30;86.56;93972.87;1734479;81;21597;-54
2022/06/09 00:58:17;;;;;;;10.53;8.45;;;;;;;14.27;86.32;93972.48;1735787;81;21015;-54
2022/06/09 01:00:56;;;;;;;8.97;8.07;;;;;;;14.27;86.30;93975.24;1735987;82;21542;-53
2022/06/09 01:03:26;;;;;;;15.55;9.03;;;;;;;14.25;86.16;93970.83;1735736;81;20995;-52
2022/06/09 01:06:05;;;;;;;10.10;7.37;;;;;;;14.23;86.16;93967.80;1735942;81;21101;-53
2022/06/09 01:08:34;;;;;;;12.50;8.98;;;;;;;14.25;86.16;93969.44;1735733;81;21467;-52
2022/06/09 01:11:04;;;;;;;11.15;8.58;;;;;;;14.24;85.98;93972.84;1711700;82;21478;-53
2022/06/09 01:13:33;;;;;;;18.35;9.63;;;;;;;14.19;86.07;93976.30;1735754;82;21209;-53
2022/06/09 01:16:22;;;;;;;13.32;8.85;;;;;;;14.12;86.18;93981.48;1735711;81;20946;-54
2022/06/09 01:19:28;;;;;;;11.12;8.45;;;;;;;14.06;86.41;93980.67;1726935;82;21849;-54
2022/06/09 01:22:28;;;;;;;11.80;8.38;;;;;;;14.00;86.63;93979.86;1725405;82;21082;-54
2022/06/09 01:25:16;;;;;;;14.15;7.83;;;;;;;13.94;86.62;93981.79;1735806;82;21003;-53
2022/06/09 01:28:18;;;;;;;17.32;8.68;;;;;;;13.86;86.63;93980.10;1736307;82;21117;-54
2022/06/09 01:31:08;;;;;;;15.88;9.98;;;;;;;13.85;86.91;93980.58;1735476;81;21042;-53
2022/06/09 01:34:13;;;;;;;15.28;9.55;;;;;;;13.81;87.48;93975.89;1736157;82;21311;-54
2022/06/09 01:37:01;;;;;;;13.18;8.53;;;;;;;13.77;87.51;93973.94;1677976;84;21476;-53
2022/06/09 01:39:43;;;;;;;14.18;8.63;;;;;;;13.71;87.62;93972.52;1700191;83;21019;-54
2022/06/09 01:42:37;;;;;;;15.90;8.65;;;;;;;13.66;87.76;93970.42;1735061;81;20970;-53
2022/06/09 01:45:15;;;;;;;14.53;9.35;;;;;;;13.62;88.12;93976.05;1733877;82;21095;-52
2022/06/09 01:48:12;;;;;;;18.98;9.45;;;;;;;13.55;88.23;93970.92;1733562;82;21158;-53
2022/06/09 01:50:59;;;;;;;13.13;9.50;;;;;;;13.52;88.47;93973.28;1722507;82;21002;-55
2022/06/09 01:53:51;;;;;;;13.68;8.63;;;;;;;13.48;88.54;93978.25;1724848;81;21497;-55
2022/06/09 01:56:29;;;;;;;13.65;8.98;;;;;;;13.51;88.51;93974.52;1721809;82;20998;-53
2022/06/09 01:59:01;;;;;;;13.08;9.60;;;;;;;13.53;88.31;93968.66;1722490;82;21051;-54
2022/06/09 02:01:33;;;;;;;12.03;9.15;;;;;;;13.53;88.44;93969.27;1735685;82;21080;-54
2022/06/09 02:04:04;;;;;;;15.65;10.13;;;;;;;13.55;88.19;93969.54;1735060;81;20975;-53
2022/06/09 02:06:32;;;;;;;18.20;9.28;;;;;;;13.56;88.28;93969.06;1735281;82;20991;-53
2022/06/09 02:09:01;;;;;;;13.65;9.05;;;;;;;13.60;88.10;93962.70;1735266;81;20997;-53
2022/06/09 02:11:29;;;;;;;13.58;9.38;;;;;;;13.58;87.86;93974.09;1735441;82;21167;-53
2022/06/09 02:13:59;;;;;;;18.00;10.05;;;;;;;13.53;87.72;93978.33;1735317;82;22588;-53
2022/06/09 02:16:28;;;;;;;13.62;8.53;;;;;;;13.47;88.06;93979.50;1735187;82;21043;-53
2022/06/09 02:18:57;;;;;;;15.88;8.50;;;;;;;13.47;88.35;93981.63;1708601;82;21019;-53
2022/06/09 02:21:34;;;;;;;13.10;9.03;;;;;;;13.50;88.37;93989.58;1735310;82;21039;-53
2022/06/09 02:24:03;;;;;;;14.75;9.68;;;;;;;13.52;88.24;93991.23;1708424;82;20999;-53
2022/06/09 02:26:31;;;;;;;15.83;8.65;;;;;;;13.49;87.78;93992.20;1735339;81;21276;-54
2022/06/09 02:28:59;;;;;;;12.93;9.08;;;;;;;13.45;87.65;93988.27;1735016;82;21546;-54
2022/06/09 02:31:27;;;;;;;14.30;9.08;;;;;;;13.44;87.61;93990.89;1708067;82;21027;-52
2022/06/09 02:33:56;;;;;;;14.23;8.65;;;;;;;13.45;87.56;93990.28;1735496;82;21027;-54
2022/06/09 02:36:24;;;;;;;14.20;8.95;;;;;;;13.47;87.78;93989.17;1735302;82;21455;-53
2022/06/09 02:38:51;;;;;;;15.70;9.58;;;;;;;13.42;87.87;93997.52;1735267;82;21194;-54
2022/06/09 02:41:19;;;;;;;18.52;10.58;;;;;;;13.35;88.07;93997.95;1735096;82;21505;-54
2022/06/09 02:43:47;;;;;;;15.80;8.93;;;;;;;13.33;88.25;93996.90;1735620;82;21039;-54
2022/06/09 02:46:15;;;;;;;17.77;8.55;;;;;;;13.22;88.14;93998.89;1735276;82;21069;-53
2022/06/09 02:48:43;;;;;;;15.03;8.70;;;;;;;13.20;88.70;93992.31;1735209;82;20983;-53
2022/06/09 02:51:32;;;;;;;15.08;9.15;;;;;;;13.20;88.62;93995.08;1735174;82;21912;-54
2022/06/09 02:54:03;;;;;;;16.95;9.88;;;;;;;13.18;88.53;93996.19;1735089;82;21043;-52
2022/06/09 02:56:31;;;;;;;27.25;9.10;;;;;;;13.13;88.67;93989.37;1735915;82;20936;-53
2022/06/09 02:58:59;;;;;;;16.82;9.23;;;;;;;13.14;88.92;93988.73;1704977;82;20996;-53
2022/06/09 03:01:28;;;;;;;17.42;8.88;;;;;;;13.21;89.00;93999.36;1735549;81;20992;-54
2022/06/09 03:03:56;;;;;;;18.45;9.98;;;;;;;13.29;89.08;93997.73;1735519;82;21138;-52
2022/06/09 03:06:25;;;;;;;19.40;10.45;;;;;;;13.32;88.76;93999.52;1735464;82;21011;-54
2022/06/09 03:08:53;;;;;;;13.43;8.13;;;;;;;13.32;88.75;94001.67;1704855;82;21427;-53
2022/06/09 03:11:21;;;;;;;17.15;9.00;;;;;;;13.32;88.99;94003.66;1735496;82;20952;-54
2022/06/09 03:13:50;;;;;;;13.25;9.60;;;;;;;13.35;88.71;93999.94;1731571;82;20983;-53
2022/06/09 03:16:17;;;;;;;18.12;9.78;;;;;;;13.34;88.84;94005.32;1704707;82;21145;-53
2022/06/09 03:18:45;;;;;;;21.48;10.53;;;;;;;13.34;88.89;94008.08;1735427;82;21566;-53
2022/06/09 03:21:14;;;;;;;15.80;8.90;;;;;;;13.31;88.71;94005.69;1735550;82;20924;-54
2022/06/09 03:23:43;;;;;;;15.88;8.58;;;;;;;13.31;88.69;94002.15;1735788;82;21427;-54
2022/06/09 03:26:11;;;;;;;14.00;8.93;;;;;;;13.29;88.59;93999.85;1735545;82;20992;-53
2022/06/09 03:28:40;;;;;;;27.67;9.43;;;;;;;13.26;88.63;94002.20;1735798;82;21099;-53
2022/06/09 03:31:10;;;;;;;21.00;9.50;;;;;;;13.30;88.81;93998.61;1735424;82;20944;-53
2022/06/09 03:33:38;;;;;;;15.85;9.55;;;;;;;13.32;88.83;94005.82;1735598;82;21476;-53
2022/06/09 03:36:08;;;;;;;16.55;9.05;;;;;;;13.36;88.69;94006.37;1735842;82;20992;-53
2022/06/09 03:38:36;;;;;;;14.50;9.05;;;;;;;13.35;88.50;94002.70;1735774;81;20992;-53
2022/06/09 03:41:04;;;;;;;16.87;8.58;;;;;;;13.34;88.50;94011.63;1735592;81;21145;-53
2022/06/09 03:43:32;;;;;;;14.50;10.10;;;;;;;13.37;88.70;94008.50;1735663;82;21495;-53
2022/06/09 03:46:01;;;;;;;17.40;8.75;;;;;;;13.42;88.67;94008.58;1735539;81;21405;-53
2022/06/09 03:48:29;;;;;;;17.52;9.58;;;;;;;13.45;88.40;94009.63;1735696;82;21472;-54
2022/06/09 03:50:57;;;;;;;25.80;9.60;;;;;;;13.43;88.36;94012.11;1735560;82;20988;-53
2022/06/09 03:53:25;;;;;;;23.70;9.53;;;;;;;13.50;88.94;94010.31;1735464;82;21097;-53
2022/06/09 03:55:55;;;;;;;18.85;9.83;;;;;;;13.66;89.03;94007.73;1735250;82;20979;-53
2022/06/09 03:58:22;;;;;;;18.67;8.83;;;;;;;13.84;88.68;94005.33;1731514;82;20992;-54
2022/06/09 04:00:51;;;;;;;16.57;9.60;;;;;;;13.99;88.12;94010.15;1735529;82;20951;-53
2022/06/09 04:03:19;;;;;;;20.70;8.85;;;;;;;14.07;87.66;94008.46;1735778;82;20996;-53
2022/06/09 04:05:47;;;;;;;18.23;8.28;;;;;;;14.14;87.17;94010.82;1735481;81;21140;-54
2022/06/09 04:08:15;;;;;;;11.40;8.75;;;;;;;14.18;86.89;94007.23;1704812;82;21026;-53
2022/06/09 04:10:44;;;;;;;10.98;9.18;;;;;;;14.18;87.02;94003.09;1704634;81;21023;-54
2022/06/09 04:13:12;;;;;;;13.85;8.85;;;;;;;14.24;87.17;93999.74;1735490;81;20952;-54
2022/06/09 04:15:41;;;;;;;11.55;8.45;;;;;;;14.30;86.92;93990.25;1704847;82;20983;-54
2022/06/09 04:18:11;;;;;;;10.85;8.40;;;;;;;14.30;86.51;94006.08;1735931;82;21524;-54
2022/06/09 04:20:38;;;;;;;15.60;9.08;;;;;;;14.34;86.76;94001.11;1735427;82;20972;-53
2022/06/09 04:23:06;;;;;;;15.32;9.08;;;;;;;14.40;86.50;93997.77;1735540;82;20984;-53
2022/06/09 04:25:35;;;;;;;15.43;9.85;;;;;;;14.43;86.43;93999.68;1735555;82;20936;-52
2022/06/09 04:28:03;;;;;;;20.08;10.15;;;;;;;14.53;86.77;93998.27;1735468;81;20980;-56
2022/06/09 04:30:32;;;;;;;18.45;8.55;;;;;;;14.70;86.56;93990.87;1735711;82;21803;-56
2022/06/09 04:33:00;;;;;;;13.68;8.55;;;;;;;14.86;86.18;93986.70;1735417;82;20932;-54
2022/06/09 04:35:29;;;;;;;13.72;7.92;;;;;;;14.99;85.41;93985.66;1704603;82;21027;-55
2022/06/09 04:38:00;;;;;;;11.65;7.72;;;;;;;15.07;85.02;93986.10;1735463;82;21424;-55
2022/06/09 04:40:35;;;;;;;14.13;8.78;;;;;;;15.15;84.73;93996.84;1735483;82;20987;-54
2022/06/09 04:43:05;;;;;;;17.05;10.10;;;;;;;15.22;84.82;93992.22;1735559;82;21730;-53
2022/06/09 04:45:33;;;;;;;11.25;9.20;;;;;;;15.30;84.80;93990.55;1735647;82;21457;-54
2022/06/09 04:48:00;;;;;;;11.05;8.83;;;;;;;15.41;84.42;93981.53;1735545;82;21436;-55
2022/06/09 04:50:29;;;;;;;16.87;8.58;;;;;;;15.54;83.91;93979.09;1735411;82;21011;-54
2022/06/09 04:52:57;;;;;;;12.23;8.93;;;;;;;15.65;83.44;93980.50;1735560;82;21496;-55
2022/06/09 04:55:26;;;;;;;11.05;8.30;;;;;;;15.70;83.08;93973.59;1731410;82;21136;-55
2022/06/09 04:57:54;;;;;;;15.43;9.13;;;;;;;15.75;82.66;93978.40;1735273;82;21046;-54
2022/06/09 05:00:23;;;;;;;10.88;8.48;;;;;;;15.79;82.34;93980.33;1704289;82;20976;-54
2022/06/09 05:02:51;;;;;;;11.50;7.87;;;;;;;15.87;82.25;93979.97;1735511;82;20976;-55
2022/06/09 05:05:22;;;;;;;11.57;7.33;;;;;;;15.96;82.07;93983.15;1735422;81;20988;-55
2022/06/09 05:07:52;;;;;;;10.88;6.97;;;;;;;16.03;81.84;93988.98;1735554;82;20939;-54
2022/06/09 05:10:21;;;;;;;14.68;7.42;;;;;;;16.09;81.69;93985.58;1735445;81;20997;-55
2022/06/09 05:12:49;;;;;;;16.48;7.65;;;;;;;16.19;81.28;93991.04;1735756;82;20967;-55
2022/06/09 05:15:19;;;;;;;9.55;6.62;;;;;;;16.29;80.84;93986.75;1704648;82;21067;-55
2022/06/09 05:17:48;;;;;;;13.03;7.20;;;;;;;16.38;80.33;93987.30;1735504;81;20996;-55
2022/06/09 05:20:19;;;;;;;9.63;6.62;;;;;;;16.51;80.19;93986.84;1735756;82;21111;-55
2022/06/09 05:22:47;;;;;;;10.45;6.92;;;;;;;16.64;79.91;93981.53;1734990;82;20995;-54
2022/06/09 05:25:16;;;;;;;10.13;6.78;;;;;;;16.81;79.47;93983.69;1704766;82;21082;-56
2022/06/09 05:27:45;;;;;;;8.85;5.65;;;;;;;16.96;78.89;93986.35;1705149;81;21511;-55
2022/06/09 05:30:18;;;;;;;22.25;8.23;;;;;;;17.07;78.44;93982.16;1735357;82;20924;-55
2022/06/09 05:32:46;;;;;;;12.70;9.83;;;;;;;17.20;78.07;93983.02;1735562;82;21240;-55
2022/06/09 05:35:14;;;;;;;6.62;5.92;;;;;;;17.34;77.68;93980.63;1735044;81;20929;-56
2022/06/09 05:46:04;;;;;;;9.78;6.40;;;;;;;17.78;75.07;93969.35;1748745;79;22077;-55
2022/06/09 05:48:33;;;;;;;10.60;6.60;;;;;;;17.90;74.84;93970.83;1753204;79;21059;-55
2022/06/09 05:51:03;;;;;;;11.80;7.22;;;;;;;18.05;74.15;93975.45;1769907;80;21057;-54
2022/06/09 05:53:32;;;;;;;12.00;6.30;;;;;;;18.15;73.90;93975.28;1758537;80;21053;-56
2022/06/09 05:55:59;;;;;;;10.98;6.05;;;;;;;18.26;73.41;93972.55;1769331;81;21003;-60
2022/06/09 05:58:27;;;;;;;11.48;6.25;;;;;;;18.39;72.69;93969.97;1773975;79;21506;-55
2022/06/09 06:00:55;;;;;;;9.93;7.05;;;;;;;18.50;72.18;93974.06;1748924;81;21004;-58
2022/06/09 06:03:23;;;;;;;12.75;6.42;;;;;;;18.62;72.00;93971.33;1742815;80;21159;-58
2022/06/09 06:08:39;;;;;;;15.13;6.80;;;;;;;18.84;71.21;93964.19;1754782;79;20982;-57
2022/06/09 06:11:07;;;;;;;16.27;5.97;;;;;;;18.96;70.86;93960.66;1772159;79;21231;-58
2022/06/09 06:13:36;;;;;;;16.67;6.33;;;;;;;19.06;70.56;93959.84;1734138;79;21109;-57
2022/06/09 06:16:05;;;;;;;16.00;5.65;;;;;;;19.21;70.09;93960.87;1761361;79;21109;-56
2022/06/09 06:18:33;;;;;;;17.20;6.30;;;;;;;19.35;69.51;93959.06;1764312;79;21100;-54
2022/06/09 06:21:00;;;;;;;11.60;6.05;;;;;;;19.51;69.01;93965.12;1729618;80;21069;-55
2022/06/09 06:23:28;;;;;;;7.95;4.87;;;;;;;19.65;68.66;93959.00;1739917;79;21901;-56
2022/06/09 06:25:57;;;;;;;9.65;5.50;;;;;;;19.78;67.63;93965.44;1747921;79;21045;-55
2022/06/09 06:28:26;;;;;;;11.53;7.40;;;;;;;19.92;66.99;93961.47;1749201;79;21623;-55
2022/06/09 06:30:53;;;;;;;11.18;5.58;;;;;;;20.06;66.55;93958.14;1744330;80;21090;-54
2022/06/09 06:33:22;;;;;;;6.62;4.75;;;;;;;20.17;66.38;93958.13;1751792;79;21013;-58
2022/06/09 06:35:51;;;;;;;5.20;4.55;;;;;;;20.29;66.02;93952.52;1756680;79;21211;-58
2022/06/09 06:38:21;;;;;;;7.95;4.97;;;;;;;20.41;65.66;93957.30;1753121;79;20997;-60
2022/06/09 06:40:54;;;;;;;5.47;4.53;;;;;;;20.52;65.21;93950.17;1802866;77;21051;-58
2022/06/09 06:43:23;;;;;;;9.68;4.60;;;;;;;20.65;64.60;93943.22;1771534;79;21585;-57
2022/06/09 06:45:51;;;;;;;8.48;4.72;;;;;;;20.80;64.40;93944.27;1790320;77;21064;-56
2022/06/09 06:48:19;;;;;;;6.22;4.40;;;;;;;20.92;64.77;93933.02;1805874;77;21880;-56
2022/06/09 06:50:47;;;;;;;4.62;4.22;;;;;;;21.11;63.72;93938.57;1807502;77;20989;-66
2022/06/09 06:53:15;;;;;;;5.47;4.42;;;;;;;21.28;63.17;93941.17;1795525;77;21000;-57
2022/06/09 06:55:43;;;;;;;4.83;4.22;;;;;;;21.47;62.37;93936.91;1765244;79;21057;-59
2022/06/09 06:58:12;;;;;;;6.15;4.00;;;;;;;21.64;61.34;93931.78;1796822;77;21099;-56
2022/06/09 07:00:40;;;;;;;4.92;4.08;;;;;;;21.78;60.83;93937.47;1790863;77;22348;-58
2022/06/09 07:03:10;;;;;;;6.12;4.55;;;;;;;21.93;59.73;93934.87;1759874;79;21603;-59
2022/06/09 07:05:38;;;;;;;7.92;4.60;;;;;;;22.03;60.14;93930.46;1791846;77;21373;-58
2022/06/09 07:08:07;;;;;;;4.40;4.00;;;;;;;22.16;59.39;93927.64;1789324;77;21519;-58
2022/06/09 07:10:36;;;;;;;6.85;4.00;;;;;;;22.35;59.76;93930.28;1789205;77;21028;-58
2022/06/09 07:13:05;;;;;;;7.42;4.78;;;;;;;22.50;59.17;93931.89;1792667;77;21077;-57
2022/06/09 07:15:34;;;;;;;8.43;4.15;;;;;;;22.64;58.44;93922.89;1798946;77;21070;-57
2022/06/09 07:18:03;;;;;;;7.83;4.17;;;;;;;22.78;58.58;93917.34;1781390;77;20965;-56
2022/06/09 07:20:31;;;;;;;8.48;4.10;;;;;;;22.93;58.03;93920.30;1790673;79;21500;-60
2022/06/09 07:23:00;;;;;;;6.30;4.17;;;;;;;23.07;57.43;93919.56;1795499;77;21610;-63
2022/06/09 07:25:29;;;;;;;8.08;6.15;;;;;;;23.23;56.98;93913.55;1768796;78;21285;-62
2022/06/09 07:27:59;;;;;;;13.83;6.75;;;;;;;23.35;55.85;93911.97;1791318;77;21176;-59
2022/06/09 07:30:28;;;;;;;7.47;4.30;;;;;;;23.50;56.31;93916.94;1790219;77;21591;-62
2022/06/09 07:32:57;;;;;;;4.85;3.98;;;;;;;23.63;55.29;93921.83;1796603;77;21043;-57
2022/06/09 07:35:27;;;;;;;11.55;6.92;;;;;;;23.72;54.25;93918.50;1799474;77;21022;-57
2022/06/09 07:37:56;;;;;;;8.30;3.87;;;;;;;23.81;53.63;93918.02;1801447;77;21263;-58
2022/06/09 07:40:24;;;;;;;7.00;3.83;;;;;;;23.94;52.83;93911.55;1796542;78;21001;-56
2022/06/09 07:42:53;;;;;;;6.15;3.30;;;;;;;24.05;52.67;93904.29;1788422;79;21059;-63
2022/06/09 07:45:23;;;;;;;3.95;3.40;;;;;;;24.19;52.32;93907.75;1801286;78;21068;-61
2022/06/09 07:47:53;;;;;;;5.15;3.65;;;;;;;24.27;52.32;93910.69;1803276;77;21056;-60
2022/06/09 07:50:24;;;;;;;6.92;3.45;;;;;;;24.38;50.92;93908.20;1778577;77;21144;-63
2022/06/09 07:52:52;;;;;;;5.25;3.40;;;;;;;24.51;52.23;93906.02;1715443;81;21601;-59
2022/06/09 07:55:22;;;;;;;4.15;3.27;;;;;;;24.68;50.31;93909.71;1743928;80;21064;-63
2022/06/09 07:57:51;;;;;;;5.87;3.47;;;;;;;24.77;48.36;93909.19;1756384;79;21025;-57
2022/06/09 08:00:19;;;;;;;3.42;2.40;;;;;;;24.86;47.10;93905.81;1747638;81;21235;-59
2022/06/09 08:02:50;;;;;;;3.10;2.80;;;;;;;24.94;45.38;93915.04;1687627;81;22373;-60
2022/06/09 08:05:20;;;;;;;10.43;3.58;;;;;;;25.00;45.42;93911.37;1718351;81;21048;-61
2022/06/09 08:07:47;;;;;;;8.23;3.40;;;;;;;25.07;45.84;93913.44;1758137;79;21520;-60
2022/06/09 08:10:20;;;;;;;6.50;3.27;;;;;;;25.19;44.24;93910.39;1739549;81;21115;-56
2022/06/09 08:12:50;;;;;;;3.47;3.05;;;;;;;25.28;43.97;93908.44;1744129;79;21069;-60
2022/06/09 08:15:20;;;;;;;6.17;3.50;;;;;;;25.35;40.88;93913.31;1753928;79;21211;-59
2022/06/09 08:17:48;;;;;;;5.03;2.95;;;;;;;25.36;41.80;93908.54;1757946;79;21049;-55
2022/06/09 08:20:16;;;;;;;9.78;2.80;;;;;;;25.42;41.05;93906.27;1739787;80;21016;-63
2022/06/09 08:22:43;;;;;;;7.12;2.22;;;;;;;25.48;42.60;93907.50;1763521;79;21605;-61
2022/06/09 08:25:14;;;;;;;4.47;2.65;;;;;;;25.60;39.45;93906.55;1757818;79;21027;-59
2022/06/09 08:27:41;;;;;;;8.43;5.08;;;;;;;25.64;40.38;93899.12;1757431;79;21231;-64
2022/06/09 08:30:10;;;;;;;6.55;3.30;;;;;;;25.70;39.82;93903.91;1763534;79;21642;-58
2022/06/09 08:32:38;;;;;;;2.70;2.25;;;;;;;25.74;39.10;93903.63;1763962;79;21453;-61
2022/06/09 08:35:07;;;;;;;6.22;2.77;;;;;;;25.74;38.59;93907.09;1765075;79;21024;-59
2022/06/09 08:37:38;;;;;;;4.33;2.47;;;;;;;25.69;39.75;93901.73;1759118;79;21447;-57
2022/06/09 08:40:08;;;;;;;3.12;2.40;;;;;;;25.76;38.78;93903.80;1761919;79;21115;-59
2022/06/09 08:43:14;;;;;;;8.25;2.87;;;;;;;25.86;39.45;93898.36;1726544;81;21477;-58
2022/06/09 08:45:42;;;;;;;4.58;2.22;;;;;;;25.96;38.28;93888.08;1755830;79;21021;-56
2022/06/09 08:48:18;;;;;;;10.25;2.58;;;;;;;26.07;38.49;93894.73;1796733;77;21028;-60
2022/06/09 08:51:01;;;;;;;7.85;2.50;;;;;;;26.19;37.08;93898.65;1801751;77;21481;-58
2022/06/09 08:53:37;;;;;;;5.85;2.00;;;;;;;26.25;36.77;93899.83;1789169;77;21589;-60
2022/06/09 08:56:12;;;;;;;6.92;2.33;;;;;;;26.31;35.53;93896.16;1804397;77;20981;-64
2022/06/09 08:58:59;;;;;;;8.85;2.00;;;;;;;26.33;36.59;93894.25;1808259;77;21572;-57
2022/06/09 09:01:38;;;;;;;4.47;2.10;;;;;;;26.39;35.51;93887.00;1799009;77;21001;-55
2022/06/09 09:04:36;;;;;;;16.97;7.22;;;;;;;26.47;34.08;93887.05;1791124;77;21048;-58
2022/06/09 09:07:13;;;;;;;4.87;2.45;;;;;;;26.45;34.93;93891.11;1810709;77;21207;-58
2022/06/09 09:09:40;;;;;;;7.60;2.17;;;;;;;26.54;36.81;93887.72;1797379;77;21052;-57
2022/06/09 09:12:28;;;;;;;5.03;2.62;;;;;;;26.71;35.54;93884.97;1800063;77;21072;-56
2022/06/09 09:15:06;;;;;;;4.58;2.02;;;;;;;26.83;35.36;93884.63;1798433;77;21036;-57
2022/06/09 09:17:56;;;;;;;6.60;2.08;;;;;;;26.98;35.78;93888.02;1791237;79;21340;-58
2022/06/09 09:20:48;;;;;;;5.00;1.40;;;;;;;27.07;34.02;93876.84;1769917;79;21120;-56
2022/06/09 09:23:18;;;;;;;9.98;1.90;;;;;;;27.09;32.50;93875.63;1771731;78;21055;-55
2022/06/09 09:26:04;;;;;;;5.08;1.80;;;;;;;26.97;32.49;93878.05;1795314;79;21028;-55
2022/06/09 09:28:41;;;;;;;2.98;1.75;;;;;;;26.96;34.15;93887.19;1799608;79;21016;-57
2022/06/09 09:31:46;;;;;;;8.83;2.02;;;;;;;27.04;34.23;93889.29;1800130;77;21095;-59
2022/06/09 09:34:21;;;;;;;7.30;1.92;;;;;;;27.10;33.02;93879.22;1759019;80;21266;-59
2022/06/09 09:36:55;;;;;;;2.10;1.50;;;;;;;27.18;32.09;93882.07;1764461;80;21057;-60
2022/06/09 09:39:42;;;;;;;9.98;1.95;;;;;;;27.26;33.09;93879.92;1759188;79;21527;-61
2022/06/09 09:42:19;;;;;;;16.70;2.00;;;;;;;27.36;32.16;93887.86;1794338;77;21103;-59
2022/06/09 09:45:07;;;;;;;5.47;1.85;;;;;;;27.40;30.41;93888.88;1770841;79;21053;-61
2022/06/09 09:47:57;;;;;;;4.03;1.30;;;;;;;27.42;29.28;93889.78;1798044;78;21067;-58
2022/06/09 09:50:35;;;;;;;6.15;1.62;;;;;;;27.46;29.37;93878.09;1806558;78;21040;-58
2022/06/09 09:53:21;;;;;;;7.33;1.85;;;;;;;27.46;29.85;93874.61;1812114;78;21015;-59
2022/06/09 09:55:56;;;;;;;2.90;1.45;;;;;;;27.50;32.67;93872.12;1810510;79;21143;-57
2022/06/09 09:58:41;;;;;;;3.70;1.65;;;;;;;27.64;30.89;93871.90;1762167;80;21551;-59
2022/06/09 10:01:26;;;;;;;2.10;1.52;;;;;;;27.74;28.54;93865.70;1747585;81;21850;-58
2022/06/09 10:09:50;;;;;;;3.62;1.70;;;;;;;27.82;29.83;93852.25;1736550;79;21484;-56
2022/06/09 10:12:27;;;;;;;6.55;1.75;;;;;;;27.92;29.37;93853.75;1734227;81;21544;-56
2022/06/09 10:15:12;;;;;;;4.00;1.75;;;;;;;28.04;30.08;93855.49;1771897;79;21137;-58
2022/06/09 10:17:54;;;;;;;4.58;2.10;;;;;;;28.11;31.83;93861.06;1766318;79;21637;-58
2022/06/09 10:20:43;;;;;;;2.72;1.50;;;;;;;28.14;28.96;93849.23;1828069;77;21061;-58
2022/06/09 10:23:25;;;;;;;3.92;1.55;;;;;;;28.15;28.48;93843.66;1778824;79;21587;-60
2022/06/09 10:26:08;;;;;;;3.65;1.85;;;;;;;28.15;28.60;93852.14;1737964;80;21465;-57
2022/06/09 10:29:08;;;;;;;3.62;1.27;;;;;;;28.25;29.64;93844.48;1798344;78;21097;-55
2022/06/09 10:31:55;;;;;;;3.02;1.55;;;;;;;28.49;27.98;93852.13;1781112;79;21015;-58
2022/06/09 10:35:01;;;;;;;4.47;1.52;;;;;;;28.80;28.06;93851.13;1800111;78;21018;-55
2022/06/09 10:37:46;;;;;;;4.55;1.65;;;;;;;29.10;28.32;93855.66;1803527;79;20993;-56
2022/06/09 10:40:32;;;;;;;6.20;2.27;;;;;;;29.40;28.20;93843.16;1767606;77;21679;-55
2022/06/09 10:43:39;;;;;;;3.60;1.70;;;;;;;29.67;26.78;93845.95;1794938;78;21524;-63
2022/06/09 10:46:40;;;;;;;2.98;1.52;;;;;;;29.91;27.18;93845.70;1807559;78;20953;-61
2022/06/09 10:55:24;;;;;;;3.47;1.47;;;;;;;30.62;26.39;93837.59;1829158;78;21117;-58
2022/06/09 10:58:17;;;;;;;3.95;1.50;;;;;;;30.78;23.49;93838.77;1819635;77;21264;-58
2022/06/09 11:00:50;;;;;;;2.95;1.32;;;;;;;30.96;23.43;93842.14;1809848;78;21053;-57
2022/06/09 11:03:30;;;;;;;4.97;1.77;;;;;;;31.20;23.89;93826.85;1811724;78;21106;-57
2022/06/09 11:06:37;;;;;;;6.30;2.95;;;;;;;31.50;26.35;93826.09;1765077;79;21561;-57
2022/06/09 11:09:31;;;;;;;2.62;2.02;;;;;;;31.87;26.53;93832.95;1793794;77;21085;-59
2022/06/09 11:12:20;;;;;;;5.60;1.82;;;;;;;32.27;25.28;93830.73;1802302;78;21286;-57
2022/06/09 11:15:20;;;;;;;3.22;1.50;;;;;;;32.46;24.67;93823.45;1742541;80;21187;-56
2022/06/09 11:18:18;;;;;;;6.87;2.20;;;;;;;32.64;24.72;93820.36;1728372;79;21096;-55
2022/06/09 11:21:38;;;;;;;5.08;1.75;;;;;;;32.87;25.34;93817.59;1762326;81;21025;-59
2022/06/09 11:24:38;;;;;;;7.60;2.20;;;;;;;32.45;25.33;93820.54;1748595;81;21051;-58
2022/06/09 11:27:26;;;;;;;4.62;1.98;;;;;;;32.59;24.76;93818.62;1768967;80;21242;-60
2022/06/09 11:30:17;;;;;;;2.58;1.75;;;;;;;32.82;25.47;93809.46;1740694;80;21122;-58
2022/06/09 11:32:52;;;;;;;7.22;1.40;;;;;;;33.08;25.39;93799.73;1743925;80;21227;-59
2022/06/09 11:35:34;;;;;;;2.40;1.35;;;;;;;33.50;24.88;93800.22;1759682;81;21465;-56
2022/06/09 11:38:10;;;;;;;2.45;1.20;;;;;;;33.78;23.53;93797.67;1760729;79;21040;-58
2022/06/09 11:40:55;;;;;;;3.15;1.07;;;;;;;34.00;22.84;93791.91;1751350;78;21232;-57
2022/06/09 11:43:47;;;;;;;3.10;1.37;;;;;;;34.40;22.87;93792.88;1755973;79;21067;-56
2022/06/09 11:46:23;;;;;;;4.22;1.57;;;;;;;34.88;21.62;93792.78;1762208;79;21499;-58
2022/06/09 11:48:55;;;;;;;7.90;1.75;;;;;;;35.21;22.14;93799.65;1733881;81;21023;-58
2022/06/09 11:51:25;;;;;;;;;;;;;;;35.25;21.16;93802.72;1759505;79;21513;-57
2022/06/09 11:53:56;;;;;;;6.83;1.37;;;;;;;35.25;20.94;93792.71;1762819;79;21792;-60
2022/06/09 11:56:40;;;;;;;6.58;1.90;;;;;;;35.20;21.17;93791.73;1766007;79;21073;-61
2022/06/09 11:59:25;;;;;;;2.58;1.17;;;;;;;35.45;22.47;93795.95;1762919;79;21036;-60
2022/06/09 12:02:07;;;;;;;3.65;1.60;;;;;;;35.81;21.51;93792.89;1777757;78;21009;-57
2022/06/09 12:05:19;;;;;;;8.55;1.82;;;;;;;36.16;22.46;93782.58;1783357;78;21055;-57
2022/06/09 12:08:09;;;;;;;2.42;1.52;;;;;;;36.42;20.39;93798.97;1788823;78;21364;-55
2022/06/09 12:11:01;;;;;;;7.55;1.40;;;;;;;36.21;21.09;93790.02;1793620;78;21326;-57
2022/06/09 12:14:00;;;;;;;5.50;1.70;;;;;;;36.34;21.83;93786.36;1780921;78;20993;-56
2022/06/09 12:17:05;;;;;;;9.90;1.70;;;;;;;36.68;21.14;93790.96;1778950;78;21056;-56
2022/06/09 12:19:36;;;;;;;7.83;1.80;;;;;;;36.81;21.11;93789.47;1763856;79;21579;-57
2022/06/09 12:22:35;;;;;;;7.20;2.47;;;;;;;36.98;22.81;93793.87;1778229;78;21067;-55
2022/06/09 12:25:17;;;;;;;6.22;2.27;;;;;;;36.98;22.96;93784.55;1719608;78;21032;-57
2022/06/09 12:27:48;;;;;;;5.08;2.10;;;;;;;36.28;22.33;93787.50;1789982;78;21005;-56